sensor_id;sensor_type;location;lat;lon;timestamp;P1;durP1;ratioP1;P2;durP2;ratioP2
5125;SDS011;63008;53.112;8.896;2023-04-26T00:01:50;18.97;;;4.30;;
5125;SDS011;63008;53.112;8.896;2023-04-26T00:03:52;12.53;;;4.63;;
5125;SDS011;63008;53.112;8.896;2023-04-26T00:05:55;8.00;;;3.63;;
5125;SDS011;63008;53.112;8.896;2023-04-26T00:07:56;14.93;;;3.37;;
5125;SDS011;63008;53.112;8.896;2023-04-26T00:09:57;12.27;;;3.43;;
5125;SDS011;63008;53.112;8.896;2023-04-26T00:11:58;7.30;;;3.33;;
5125;SDS011;63008;53.112;8.896;2023-04-26T00:14:00;12.40;;;3.50;;
5125;SDS011;63008;53.112;8.896;2023-04-26T00:16:01;12.90;;;3.77;;
5125;SDS011;63008;53.112;8.896;2023-04-26T00:18:01;11.70;;;4.47;;
5125;SDS011;63008;53.112;8.896;2023-04-26T00:20:03;15.43;;;4.33;;
5125;SDS011;63008;53.112;8.896;2023-04-26T00:22:07;15.27;;;4.70;;
5125;SDS011;63008;53.112;8.896;2023-04-26T00:24:08;16.50;;;4.90;;
5125;SDS011;63008;53.112;8.896;2023-04-26T00:26:09;8.93;;;4.30;;
5125;SDS011;63008;53.112;8.896;2023-04-26T00:28:10;12.53;;;4.20;;
5125;SDS011;63008;53.112;8.896;2023-04-26T00:30:11;11.57;;;4.00;;
5125;SDS011;63008;53.112;8.896;2023-04-26T00:32:12;14.00;;;5.30;;
5125;SDS011;63008;53.112;8.896;2023-04-26T00:34:14;12.03;;;4.10;;
5125;SDS011;63008;53.112;8.896;2023-04-26T00:36:15;20.27;;;4.17;;
5125;SDS011;63008;53.112;8.896;2023-04-26T00:38:18;5.50;;;3.30;;
5125;SDS011;63008;53.112;8.896;2023-04-26T00:40:19;12.47;;;3.40;;
5125;SDS011;63008;53.112;8.896;2023-04-26T00:42:20;12.83;;;3.10;;
5125;SDS011;63008;53.112;8.896;2023-04-26T00:44:21;8.27;;;3.30;;
5125;SDS011;63008;53.112;8.896;2023-04-26T00:46:22;17.37;;;3.27;;
5125;SDS011;63008;53.112;8.896;2023-04-26T00:48:23;10.33;;;3.03;;
5125;SDS011;63008;53.112;8.896;2023-04-26T00:50:25;18.67;;;3.87;;
5125;SDS011;63008;53.112;8.896;2023-04-26T00:52:27;12.93;;;3.90;;
5125;SDS011;63008;53.112;8.896;2023-04-26T00:54:28;9.90;;;3.67;;
5125;SDS011;63008;53.112;8.896;2023-04-26T00:56:29;14.77;;;3.47;;
5125;SDS011;63008;53.112;8.896;2023-04-26T00:58:30;13.60;;;3.63;;
5125;SDS011;63008;53.112;8.896;2023-04-26T01:00:31;14.27;;;4.43;;
5125;SDS011;63008;53.112;8.896;2023-04-26T01:02:32;9.33;;;3.47;;
5125;SDS011;63008;53.112;8.896;2023-04-26T01:04:33;7.60;;;3.80;;
5125;SDS011;63008;53.112;8.896;2023-04-26T01:06:34;15.13;;;3.87;;
5125;SDS011;63008;53.112;8.896;2023-04-26T01:08:38;14.53;;;4.20;;
5125;SDS011;63008;53.112;8.896;2023-04-26T01:10:39;11.33;;;4.20;;
5125;SDS011;63008;53.112;8.896;2023-04-26T01:12:40;8.93;;;3.63;;
5125;SDS011;63008;53.112;8.896;2023-04-26T01:14:41;13.17;;;4.03;;
5125;SDS011;63008;53.112;8.896;2023-04-26T01:16:43;14.57;;;5.13;;
5125;SDS011;63008;53.112;8.896;2023-04-26T01:18:52;14.80;;;5.60;;
5125;SDS011;63008;53.112;8.896;2023-04-26T01:20:53;19.17;;;4.67;;
5125;SDS011;63008;53.112;8.896;2023-04-26T01:22:56;12.00;;;5.30;;
5125;SDS011;63008;53.112;8.896;2023-04-26T01:24:57;9.70;;;4.37;;
5125;SDS011;63008;53.112;8.896;2023-04-26T01:27:00;13.53;;;4.60;;
5125;SDS011;63008;53.112;8.896;2023-04-26T01:29:11;11.30;;;4.00;;
5125;SDS011;63008;53.112;8.896;2023-04-26T01:31:13;12.30;;;4.80;;
5125;SDS011;63008;53.112;8.896;2023-04-26T01:33:14;10.10;;;4.17;;
5125;SDS011;63008;53.112;8.896;2023-04-26T01:35:15;9.40;;;5.27;;
5125;SDS011;63008;53.112;8.896;2023-04-26T01:37:17;11.07;;;4.90;;
5125;SDS011;63008;53.112;8.896;2023-04-26T01:39:18;7.87;;;4.00;;
5125;SDS011;63008;53.112;8.896;2023-04-26T01:41:19;12.80;;;4.83;;
5125;SDS011;63008;53.112;8.896;2023-04-26T01:43:23;13.60;;;4.60;;
5125;SDS011;63008;53.112;8.896;2023-04-26T01:45:24;12.63;;;4.40;;
5125;SDS011;63008;53.112;8.896;2023-04-26T01:47:25;15.20;;;4.97;;
5125;SDS011;63008;53.112;8.896;2023-04-26T01:49:26;10.73;;;4.83;;
5125;SDS011;63008;53.112;8.896;2023-04-26T01:51:27;14.10;;;5.80;;
5125;SDS011;63008;53.112;8.896;2023-04-26T01:53:28;11.93;;;5.23;;
5125;SDS011;63008;53.112;8.896;2023-04-26T01:55:28;14.83;;;5.53;;
5125;SDS011;63008;53.112;8.896;2023-04-26T01:57:30;16.57;;;5.80;;
5125;SDS011;63008;53.112;8.896;2023-04-26T01:59:31;18.60;;;5.00;;
5125;SDS011;63008;53.112;8.896;2023-04-26T02:01:32;7.10;;;4.60;;
5125;SDS011;63008;53.112;8.896;2023-04-26T02:03:33;12.63;;;4.37;;
5125;SDS011;63008;53.112;8.896;2023-04-26T02:05:35;7.93;;;3.90;;
5125;SDS011;63008;53.112;8.896;2023-04-26T02:07:36;8.10;;;3.90;;
5125;SDS011;63008;53.112;8.896;2023-04-26T02:09:37;8.00;;;3.90;;
5125;SDS011;63008;53.112;8.896;2023-04-26T02:11:38;14.77;;;4.90;;
5125;SDS011;63008;53.112;8.896;2023-04-26T02:13:39;11.43;;;4.30;;
5125;SDS011;63008;53.112;8.896;2023-04-26T02:15:40;11.70;;;4.03;;
5125;SDS011;63008;53.112;8.896;2023-04-26T02:17:41;13.33;;;4.90;;
5125;SDS011;63008;53.112;8.896;2023-04-26T02:19:42;18.00;;;4.67;;
5125;SDS011;63008;53.112;8.896;2023-04-26T02:21:50;14.50;;;3.90;;
5125;SDS011;63008;53.112;8.896;2023-04-26T02:23:55;6.47;;;3.73;;
5125;SDS011;63008;53.112;8.896;2023-04-26T02:25:56;7.97;;;3.60;;
5125;SDS011;63008;53.112;8.896;2023-04-26T02:27:57;6.33;;;3.67;;
5125;SDS011;63008;53.112;8.896;2023-04-26T02:29:58;15.63;;;4.10;;
5125;SDS011;63008;53.112;8.896;2023-04-26T02:31:59;14.57;;;3.97;;
5125;SDS011;63008;53.112;8.896;2023-04-26T02:34:00;10.60;;;3.63;;
5125;SDS011;63008;53.112;8.896;2023-04-26T02:36:02;9.13;;;3.87;;
5125;SDS011;63008;53.112;8.896;2023-04-26T02:38:05;12.20;;;4.60;;
5125;SDS011;63008;53.112;8.896;2023-04-26T02:40:06;8.17;;;4.40;;
5125;SDS011;63008;53.112;8.896;2023-04-26T02:42:10;8.70;;;3.87;;
5125;SDS011;63008;53.112;8.896;2023-04-26T02:44:11;13.30;;;4.53;;
5125;SDS011;63008;53.112;8.896;2023-04-26T02:46:12;8.43;;;4.17;;
5125;SDS011;63008;53.112;8.896;2023-04-26T02:48:14;13.47;;;4.33;;
5125;SDS011;63008;53.112;8.896;2023-04-26T02:50:15;13.30;;;4.43;;
5125;SDS011;63008;53.112;8.896;2023-04-26T02:52:16;14.60;;;4.97;;
5125;SDS011;63008;53.112;8.896;2023-04-26T02:54:17;6.03;;;4.53;;
5125;SDS011;63008;53.112;8.896;2023-04-26T02:56:18;10.43;;;4.40;;
5125;SDS011;63008;53.112;8.896;2023-04-26T02:58:19;7.73;;;4.83;;
5125;SDS011;63008;53.112;8.896;2023-04-26T03:00:20;18.77;;;4.90;;
5125;SDS011;63008;53.112;8.896;2023-04-26T03:02:23;10.90;;;5.40;;
5125;SDS011;63008;53.112;8.896;2023-04-26T03:04:24;12.20;;;5.23;;
5125;SDS011;63008;53.112;8.896;2023-04-26T03:06:25;10.43;;;4.73;;
5125;SDS011;63008;53.112;8.896;2023-04-26T03:08:26;15.33;;;4.60;;
5125;SDS011;63008;53.112;8.896;2023-04-26T03:10:27;15.03;;;4.63;;
5125;SDS011;63008;53.112;8.896;2023-04-26T03:12:28;11.63;;;4.93;;
5125;SDS011;63008;53.112;8.896;2023-04-26T03:14:29;10.20;;;4.53;;
5125;SDS011;63008;53.112;8.896;2023-04-26T03:16:29;11.60;;;5.70;;
5125;SDS011;63008;53.112;8.896;2023-04-26T03:18:31;7.50;;;3.90;;
5125;SDS011;63008;53.112;8.896;2023-04-26T03:20:32;11.60;;;4.70;;
5125;SDS011;63008;53.112;8.896;2023-04-26T03:22:33;16.63;;;4.70;;
5125;SDS011;63008;53.112;8.896;2023-04-26T03:24:34;16.03;;;5.30;;
5125;SDS011;63008;53.112;8.896;2023-04-26T03:26:35;10.37;;;4.53;;
5125;SDS011;63008;53.112;8.896;2023-04-26T03:28:36;13.23;;;5.37;;
5125;SDS011;63008;53.112;8.896;2023-04-26T03:30:37;10.53;;;4.80;;
5125;SDS011;63008;53.112;8.896;2023-04-26T03:32:38;12.80;;;5.67;;
5125;SDS011;63008;53.112;8.896;2023-04-26T03:34:39;9.40;;;4.97;;
5125;SDS011;63008;53.112;8.896;2023-04-26T03:36:40;8.00;;;4.10;;
5125;SDS011;63008;53.112;8.896;2023-04-26T03:38:41;14.97;;;4.80;;
5125;SDS011;63008;53.112;8.896;2023-04-26T03:40:42;14.97;;;4.50;;
5125;SDS011;63008;53.112;8.896;2023-04-26T03:42:43;9.40;;;4.80;;
5125;SDS011;63008;53.112;8.896;2023-04-26T03:44:44;13.30;;;4.40;;
5125;SDS011;63008;53.112;8.896;2023-04-26T03:46:45;8.10;;;4.13;;
5125;SDS011;63008;53.112;8.896;2023-04-26T03:48:46;9.33;;;4.07;;
5125;SDS011;63008;53.112;8.896;2023-04-26T03:50:47;24.70;;;5.27;;
5125;SDS011;63008;53.112;8.896;2023-04-26T03:52:48;9.60;;;4.50;;
5125;SDS011;63008;53.112;8.896;2023-04-26T03:54:49;12.00;;;4.70;;
5125;SDS011;63008;53.112;8.896;2023-04-26T03:56:50;9.83;;;4.30;;
5125;SDS011;63008;53.112;8.896;2023-04-26T03:58:51;15.50;;;5.47;;
5125;SDS011;63008;53.112;8.896;2023-04-26T04:00:55;9.50;;;4.17;;
5125;SDS011;63008;53.112;8.896;2023-04-26T04:02:56;7.47;;;4.03;;
5125;SDS011;63008;53.112;8.896;2023-04-26T04:04:57;9.37;;;4.33;;
5125;SDS011;63008;53.112;8.896;2023-04-26T04:06:58;16.37;;;4.83;;
5125;SDS011;63008;53.112;8.896;2023-04-26T04:08:59;18.47;;;3.90;;
5125;SDS011;63008;53.112;8.896;2023-04-26T04:11:00;9.30;;;4.30;;
5125;SDS011;63008;53.112;8.896;2023-04-26T04:13:02;9.87;;;4.77;;
5125;SDS011;63008;53.112;8.896;2023-04-26T04:15:03;17.77;;;4.07;;
5125;SDS011;63008;53.112;8.896;2023-04-26T04:17:04;6.33;;;3.87;;
5125;SDS011;63008;53.112;8.896;2023-04-26T04:19:06;10.30;;;4.03;;
5125;SDS011;63008;53.112;8.896;2023-04-26T04:21:07;10.70;;;4.33;;
5125;SDS011;63008;53.112;8.896;2023-04-26T04:23:08;11.57;;;4.10;;
5125;SDS011;63008;53.112;8.896;2023-04-26T04:25:09;10.23;;;4.27;;
5125;SDS011;63008;53.112;8.896;2023-04-26T04:27:10;14.50;;;4.57;;
5125;SDS011;63008;53.112;8.896;2023-04-26T04:29:11;19.37;;;4.83;;
5125;SDS011;63008;53.112;8.896;2023-04-26T04:31:12;6.43;;;4.10;;
5125;SDS011;63008;53.112;8.896;2023-04-26T04:33:13;14.20;;;4.67;;
5125;SDS011;63008;53.112;8.896;2023-04-26T04:35:15;14.90;;;5.53;;
5125;SDS011;63008;53.112;8.896;2023-04-26T04:37:16;10.43;;;4.43;;
5125;SDS011;63008;53.112;8.896;2023-04-26T04:39:17;10.57;;;4.90;;
5125;SDS011;63008;53.112;8.896;2023-04-26T04:41:18;17.73;;;5.60;;
5125;SDS011;63008;53.112;8.896;2023-04-26T04:43:23;13.67;;;5.20;;
5125;SDS011;63008;53.112;8.896;2023-04-26T04:45:24;12.50;;;5.23;;
5125;SDS011;63008;53.112;8.896;2023-04-26T04:47:25;12.47;;;5.50;;
5125;SDS011;63008;53.112;8.896;2023-04-26T04:49:26;11.77;;;4.57;;
5125;SDS011;63008;53.112;8.896;2023-04-26T04:51:27;11.90;;;5.07;;
5125;SDS011;63008;53.112;8.896;2023-04-26T04:53:28;15.27;;;4.80;;
5125;SDS011;63008;53.112;8.896;2023-04-26T04:55:29;9.53;;;4.00;;
5125;SDS011;63008;53.112;8.896;2023-04-26T04:57:30;10.30;;;4.47;;
5125;SDS011;63008;53.112;8.896;2023-04-26T04:59:32;15.30;;;4.90;;
5125;SDS011;63008;53.112;8.896;2023-04-26T05:01:33;9.77;;;4.27;;
5125;SDS011;63008;53.112;8.896;2023-04-26T05:03:35;11.43;;;4.50;;
5125;SDS011;63008;53.112;8.896;2023-04-26T05:05:36;8.57;;;3.90;;
5125;SDS011;63008;53.112;8.896;2023-04-26T05:07:37;8.73;;;4.43;;
5125;SDS011;63008;53.112;8.896;2023-04-26T05:09:38;10.87;;;5.00;;
5125;SDS011;63008;53.112;8.896;2023-04-26T05:11:39;12.63;;;4.03;;
5125;SDS011;63008;53.112;8.896;2023-04-26T05:13:40;7.60;;;4.20;;
5125;SDS011;63008;53.112;8.896;2023-04-26T05:15:41;6.00;;;3.50;;
5125;SDS011;63008;53.112;8.896;2023-04-26T05:17:42;9.93;;;3.70;;
5125;SDS011;63008;53.112;8.896;2023-04-26T05:19:43;7.90;;;3.87;;
5125;SDS011;63008;53.112;8.896;2023-04-26T05:21:44;6.40;;;3.50;;
5125;SDS011;63008;53.112;8.896;2023-04-26T05:23:44;8.47;;;3.90;;
5125;SDS011;63008;53.112;8.896;2023-04-26T05:25:45;10.80;;;3.70;;
5125;SDS011;63008;53.112;8.896;2023-04-26T05:27:46;19.33;;;4.73;;
5125;SDS011;63008;53.112;8.896;2023-04-26T05:29:47;16.03;;;4.20;;
5125;SDS011;63008;53.112;8.896;2023-04-26T05:31:48;9.30;;;3.53;;
5125;SDS011;63008;53.112;8.896;2023-04-26T05:33:49;6.07;;;3.80;;
5125;SDS011;63008;53.112;8.896;2023-04-26T05:35:51;8.63;;;3.90;;
5125;SDS011;63008;53.112;8.896;2023-04-26T05:37:53;10.13;;;3.30;;
5125;SDS011;63008;53.112;8.896;2023-04-26T05:39:54;5.77;;;3.23;;
5125;SDS011;63008;53.112;8.896;2023-04-26T05:41:55;14.63;;;3.70;;
5125;SDS011;63008;53.112;8.896;2023-04-26T05:43:56;8.23;;;3.13;;
5125;SDS011;63008;53.112;8.896;2023-04-26T05:45:57;5.30;;;2.73;;
5125;SDS011;63008;53.112;8.896;2023-04-26T05:47:58;5.30;;;2.60;;
5125;SDS011;63008;53.112;8.896;2023-04-26T05:49:59;6.40;;;3.23;;
5125;SDS011;63008;53.112;8.896;2023-04-26T05:52:00;9.77;;;2.90;;
5125;SDS011;63008;53.112;8.896;2023-04-26T05:54:03;11.40;;;2.93;;
5125;SDS011;63008;53.112;8.896;2023-04-26T05:56:04;6.90;;;2.60;;
5125;SDS011;63008;53.112;8.896;2023-04-26T05:58:05;4.00;;;2.73;;
5125;SDS011;63008;53.112;8.896;2023-04-26T06:00:06;3.73;;;2.00;;
5125;SDS011;63008;53.112;8.896;2023-04-26T06:02:09;6.70;;;2.40;;
5125;SDS011;63008;53.112;8.896;2023-04-26T06:04:11;5.20;;;2.50;;
5125;SDS011;63008;53.112;8.896;2023-04-26T06:06:14;5.30;;;1.90;;
5125;SDS011;63008;53.112;8.896;2023-04-26T06:08:16;4.67;;;2.30;;
5125;SDS011;63008;53.112;8.896;2023-04-26T06:10:16;11.30;;;3.27;;
5125;SDS011;63008;53.112;8.896;2023-04-26T06:12:17;6.77;;;2.60;;
5125;SDS011;63008;53.112;8.896;2023-04-26T06:14:18;3.47;;;1.97;;
5125;SDS011;63008;53.112;8.896;2023-04-26T06:16:21;11.23;;;2.30;;
5125;SDS011;63008;53.112;8.896;2023-04-26T06:18:22;10.17;;;2.83;;
5125;SDS011;63008;53.112;8.896;2023-04-26T06:20:23;8.97;;;2.60;;
5125;SDS011;63008;53.112;8.896;2023-04-26T06:22:24;8.77;;;2.73;;
5125;SDS011;63008;53.112;8.896;2023-04-26T06:24:25;6.60;;;2.70;;
5125;SDS011;63008;53.112;8.896;2023-04-26T06:26:25;9.83;;;2.70;;
5125;SDS011;63008;53.112;8.896;2023-04-26T06:28:26;5.27;;;3.00;;
5125;SDS011;63008;53.112;8.896;2023-04-26T06:30:27;12.00;;;2.30;;
5125;SDS011;63008;53.112;8.896;2023-04-26T06:32:28;9.53;;;2.70;;
5125;SDS011;63008;53.112;8.896;2023-04-26T06:34:29;5.23;;;2.73;;
5125;SDS011;63008;53.112;8.896;2023-04-26T06:36:31;4.50;;;2.20;;
5125;SDS011;63008;53.112;8.896;2023-04-26T06:38:32;14.23;;;2.67;;
5125;SDS011;63008;53.112;8.896;2023-04-26T06:40:33;7.50;;;2.97;;
5125;SDS011;63008;53.112;8.896;2023-04-26T06:42:36;11.03;;;2.63;;
5125;SDS011;63008;53.112;8.896;2023-04-26T06:44:37;7.50;;;2.30;;
5125;SDS011;63008;53.112;8.896;2023-04-26T06:46:38;25.03;;;3.07;;
5125;SDS011;63008;53.112;8.896;2023-04-26T06:48:39;8.70;;;3.43;;
5125;SDS011;63008;53.112;8.896;2023-04-26T06:50:40;4.77;;;2.53;;
5125;SDS011;63008;53.112;8.896;2023-04-26T06:52:41;15.90;;;3.13;;
5125;SDS011;63008;53.112;8.896;2023-04-26T06:54:42;7.33;;;2.73;;
5125;SDS011;63008;53.112;8.896;2023-04-26T06:56:43;4.97;;;2.70;;
5125;SDS011;63008;53.112;8.896;2023-04-26T06:59:17;9.60;;;2.40;;
5125;SDS011;63008;53.112;8.896;2023-04-26T07:01:11;4.07;;;2.60;;
5125;SDS011;63008;53.112;8.896;2023-04-26T07:03:12;5.27;;;2.50;;
5125;SDS011;63008;53.112;8.896;2023-04-26T07:05:13;7.70;;;2.40;;
5125;SDS011;63008;53.112;8.896;2023-04-26T07:07:14;5.30;;;2.47;;
5125;SDS011;63008;53.112;8.896;2023-04-26T07:09:16;7.33;;;2.93;;
5125;SDS011;63008;53.112;8.896;2023-04-26T07:11:17;8.33;;;2.90;;
5125;SDS011;63008;53.112;8.896;2023-04-26T07:13:18;6.87;;;2.80;;
5125;SDS011;63008;53.112;8.896;2023-04-26T07:15:19;11.50;;;3.23;;
5125;SDS011;63008;53.112;8.896;2023-04-26T07:17:20;6.73;;;2.97;;
5125;SDS011;63008;53.112;8.896;2023-04-26T07:19:21;6.30;;;2.40;;
5125;SDS011;63008;53.112;8.896;2023-04-26T07:21:23;9.23;;;2.90;;
5125;SDS011;63008;53.112;8.896;2023-04-26T07:23:28;9.13;;;3.20;;
5125;SDS011;63008;53.112;8.896;2023-04-26T07:25:29;7.60;;;3.10;;
5125;SDS011;63008;53.112;8.896;2023-04-26T07:27:30;10.73;;;3.20;;
5125;SDS011;63008;53.112;8.896;2023-04-26T07:29:31;11.70;;;2.57;;
5125;SDS011;63008;53.112;8.896;2023-04-26T07:31:32;10.70;;;3.00;;
5125;SDS011;63008;53.112;8.896;2023-04-26T07:33:35;8.20;;;2.87;;
5125;SDS011;63008;53.112;8.896;2023-04-26T07:35:36;7.67;;;2.70;;
5125;SDS011;63008;53.112;8.896;2023-04-26T07:37:37;8.53;;;2.97;;
5125;SDS011;63008;53.112;8.896;2023-04-26T07:39:38;11.40;;;2.47;;
5125;SDS011;63008;53.112;8.896;2023-04-26T07:41:39;6.43;;;2.83;;
5125;SDS011;63008;53.112;8.896;2023-04-26T07:43:41;6.20;;;2.30;;
5125;SDS011;63008;53.112;8.896;2023-04-26T07:45:43;9.90;;;2.80;;
5125;SDS011;63008;53.112;8.896;2023-04-26T07:47:44;6.80;;;2.50;;
5125;SDS011;63008;53.112;8.896;2023-04-26T07:49:45;7.13;;;3.30;;
5125;SDS011;63008;53.112;8.896;2023-04-26T07:51:47;7.80;;;2.33;;
5125;SDS011;63008;53.112;8.896;2023-04-26T07:53:48;6.17;;;2.87;;
5125;SDS011;63008;53.112;8.896;2023-04-26T07:55:49;6.57;;;3.00;;
5125;SDS011;63008;53.112;8.896;2023-04-26T07:57:51;11.03;;;3.97;;
5125;SDS011;63008;53.112;8.896;2023-04-26T07:59:52;8.60;;;4.00;;
5125;SDS011;63008;53.112;8.896;2023-04-26T08:01:53;11.13;;;3.53;;
5125;SDS011;63008;53.112;8.896;2023-04-26T08:03:54;9.47;;;3.53;;
5125;SDS011;63008;53.112;8.896;2023-04-26T08:05:55;11.33;;;3.00;;
5125;SDS011;63008;53.112;8.896;2023-04-26T08:07:56;6.83;;;2.50;;
5125;SDS011;63008;53.112;8.896;2023-04-26T08:09:57;9.23;;;2.50;;
5125;SDS011;63008;53.112;8.896;2023-04-26T08:11:58;9.83;;;4.00;;
5125;SDS011;63008;53.112;8.896;2023-04-26T08:14:01;13.10;;;4.43;;
5125;SDS011;63008;53.112;8.896;2023-04-26T08:16:02;8.00;;;3.80;;
5125;SDS011;63008;53.112;8.896;2023-04-26T08:18:03;9.77;;;3.30;;
5125;SDS011;63008;53.112;8.896;2023-04-26T08:20:04;11.57;;;3.40;;
5125;SDS011;63008;53.112;8.896;2023-04-26T08:22:06;5.80;;;2.90;;
5125;SDS011;63008;53.112;8.896;2023-04-26T08:24:07;10.47;;;2.97;;
5125;SDS011;63008;53.112;8.896;2023-04-26T08:26:08;7.67;;;3.30;;
5125;SDS011;63008;53.112;8.896;2023-04-26T08:28:09;9.60;;;3.00;;
5125;SDS011;63008;53.112;8.896;2023-04-26T08:30:14;7.40;;;3.63;;
5125;SDS011;63008;53.112;8.896;2023-04-26T08:32:15;6.10;;;2.60;;
5125;SDS011;63008;53.112;8.896;2023-04-26T08:34:16;10.47;;;2.60;;
5125;SDS011;63008;53.112;8.896;2023-04-26T08:36:17;11.00;;;3.07;;
5125;SDS011;63008;53.112;8.896;2023-04-26T08:38:18;12.90;;;2.50;;
5125;SDS011;63008;53.112;8.896;2023-04-26T08:40:21;10.27;;;2.67;;
5125;SDS011;63008;53.112;8.896;2023-04-26T08:42:25;12.03;;;2.30;;
5125;SDS011;63008;53.112;8.896;2023-04-26T08:44:27;5.80;;;3.20;;
5125;SDS011;63008;53.112;8.896;2023-04-26T08:46:28;9.40;;;3.07;;
5125;SDS011;63008;53.112;8.896;2023-04-26T08:48:34;10.33;;;2.67;;
5125;SDS011;63008;53.112;8.896;2023-04-26T08:50:36;8.17;;;2.50;;
5125;SDS011;63008;53.112;8.896;2023-04-26T08:52:38;7.80;;;2.50;;
5125;SDS011;63008;53.112;8.896;2023-04-26T08:54:40;7.90;;;2.83;;
5125;SDS011;63008;53.112;8.896;2023-04-26T08:56:41;7.10;;;2.23;;
5125;SDS011;63008;53.112;8.896;2023-04-26T08:58:43;10.83;;;2.33;;
5125;SDS011;63008;53.112;8.896;2023-04-26T09:00:44;14.73;;;2.43;;
5125;SDS011;63008;53.112;8.896;2023-04-26T09:02:47;7.33;;;2.43;;
5125;SDS011;63008;53.112;8.896;2023-04-26T09:04:50;13.00;;;2.40;;
5125;SDS011;63008;53.112;8.896;2023-04-26T09:06:51;6.97;;;2.20;;
5125;SDS011;63008;53.112;8.896;2023-04-26T09:08:56;5.90;;;1.93;;
5125;SDS011;63008;53.112;8.896;2023-04-26T09:10:58;10.33;;;2.50;;
5125;SDS011;63008;53.112;8.896;2023-04-26T09:12:59;12.07;;;2.43;;
5125;SDS011;63008;53.112;8.896;2023-04-26T09:15:00;5.13;;;2.00;;
5125;SDS011;63008;53.112;8.896;2023-04-26T09:17:01;7.83;;;3.03;;
5125;SDS011;63008;53.112;8.896;2023-04-26T09:19:02;7.20;;;2.03;;
5125;SDS011;63008;53.112;8.896;2023-04-26T09:21:06;5.63;;;2.40;;
5125;SDS011;63008;53.112;8.896;2023-04-26T09:23:08;4.53;;;2.10;;
5125;SDS011;63008;53.112;8.896;2023-04-26T09:25:10;9.50;;;2.43;;
5125;SDS011;63008;53.112;8.896;2023-04-26T09:27:13;3.13;;;1.70;;
5125;SDS011;63008;53.112;8.896;2023-04-26T09:29:16;8.73;;;2.57;;
5125;SDS011;63008;53.112;8.896;2023-04-26T09:31:37;5.87;;;1.77;;
5125;SDS011;63008;53.112;8.896;2023-04-26T09:33:56;3.40;;;2.00;;
5125;SDS011;63008;53.112;8.896;2023-04-26T09:36:10;6.10;;;2.30;;
5125;SDS011;63008;53.112;8.896;2023-04-26T09:38:13;4.17;;;1.90;;
5125;SDS011;63008;53.112;8.896;2023-04-26T09:40:22;7.77;;;1.97;;
5125;SDS011;63008;53.112;8.896;2023-04-26T09:42:23;4.47;;;1.87;;
5125;SDS011;63008;53.112;8.896;2023-04-26T09:44:24;8.50;;;2.00;;
5125;SDS011;63008;53.112;8.896;2023-04-26T09:46:25;4.63;;;2.30;;
5125;SDS011;63008;53.112;8.896;2023-04-26T09:48:27;2.27;;;1.30;;
5125;SDS011;63008;53.112;8.896;2023-04-26T09:50:33;5.60;;;1.60;;
5125;SDS011;63008;53.112;8.896;2023-04-26T09:52:41;3.50;;;1.23;;
5125;SDS011;63008;53.112;8.896;2023-04-26T09:56:57;5.30;;;1.63;;
5125;SDS011;63008;53.112;8.896;2023-04-26T09:58:59;4.03;;;1.07;;
5125;SDS011;63008;53.112;8.896;2023-04-26T10:01:01;1.70;;;1.60;;
5125;SDS011;63008;53.112;8.896;2023-04-26T10:03:04;5.20;;;1.90;;
5125;SDS011;63008;53.112;8.896;2023-04-26T10:05:07;7.70;;;2.40;;
5125;SDS011;63008;53.112;8.896;2023-04-26T10:07:09;4.97;;;1.70;;
5125;SDS011;63008;53.112;8.896;2023-04-26T10:09:11;3.43;;;1.53;;
5125;SDS011;63008;53.112;8.896;2023-04-26T10:11:12;3.57;;;1.70;;
5125;SDS011;63008;53.112;8.896;2023-04-26T10:13:14;6.60;;;2.23;;
5125;SDS011;63008;53.112;8.896;2023-04-26T10:15:16;10.93;;;2.60;;
5125;SDS011;63008;53.112;8.896;2023-04-26T10:17:18;8.20;;;1.87;;
5125;SDS011;63008;53.112;8.896;2023-04-26T10:19:20;5.30;;;1.50;;
5125;SDS011;63008;53.112;8.896;2023-04-26T10:21:24;1.30;;;1.20;;
5125;SDS011;63008;53.112;8.896;2023-04-26T10:23:30;1.73;;;1.60;;
5125;SDS011;63008;53.112;8.896;2023-04-26T10:25:36;1.93;;;1.20;;
5125;SDS011;63008;53.112;8.896;2023-04-26T10:34:16;2.70;;;1.20;;
5125;SDS011;63008;53.112;8.896;2023-04-26T10:36:19;2.93;;;1.60;;
5125;SDS011;63008;53.112;8.896;2023-04-26T10:38:20;6.07;;;1.80;;
5125;SDS011;63008;53.112;8.896;2023-04-26T10:40:39;3.33;;;2.10;;
5125;SDS011;63008;53.112;8.896;2023-04-26T10:42:40;4.93;;;2.00;;
5125;SDS011;63008;53.112;8.896;2023-04-26T10:44:41;8.63;;;1.50;;
5125;SDS011;63008;53.112;8.896;2023-04-26T10:46:48;2.27;;;1.53;;
5125;SDS011;63008;53.112;8.896;2023-04-26T10:48:51;3.10;;;0.97;;
5125;SDS011;63008;53.112;8.896;2023-04-26T10:53:04;2.00;;;1.33;;
5125;SDS011;63008;53.112;8.896;2023-04-26T10:55:05;15.13;;;2.47;;
5125;SDS011;63008;53.112;8.896;2023-04-26T10:57:07;2.53;;;1.37;;
5125;SDS011;63008;53.112;8.896;2023-04-26T10:59:12;2.70;;;1.30;;
5125;SDS011;63008;53.112;8.896;2023-04-26T11:01:15;8.60;;;1.57;;
5125;SDS011;63008;53.112;8.896;2023-04-26T11:03:18;5.43;;;1.50;;
5125;SDS011;63008;53.112;8.896;2023-04-26T11:05:32;3.97;;;2.17;;
5125;SDS011;63008;53.112;8.896;2023-04-26T11:07:37;2.00;;;1.20;;
5125;SDS011;63008;53.112;8.896;2023-04-26T11:09:39;3.50;;;1.50;;
5125;SDS011;63008;53.112;8.896;2023-04-26T11:11:50;4.63;;;1.53;;
5125;SDS011;63008;53.112;8.896;2023-04-26T11:13:55;4.63;;;1.30;;
5125;SDS011;63008;53.112;8.896;2023-04-26T11:15:59;2.00;;;1.10;;
5125;SDS011;63008;53.112;8.896;2023-04-26T11:18:05;2.30;;;0.77;;
5125;SDS011;63008;53.112;8.896;2023-04-26T11:20:09;2.00;;;1.07;;
5125;SDS011;63008;53.112;8.896;2023-04-26T11:22:15;3.07;;;0.90;;
5125;SDS011;63008;53.112;8.896;2023-04-26T11:24:16;6.07;;;1.30;;
5125;SDS011;63008;53.112;8.896;2023-04-26T11:26:24;3.80;;;0.90;;
5125;SDS011;63008;53.112;8.896;2023-04-26T11:28:33;2.03;;;1.30;;
5125;SDS011;63008;53.112;8.896;2023-04-26T11:30:35;5.10;;;1.23;;
5125;SDS011;63008;53.112;8.896;2023-04-26T11:32:44;1.63;;;1.00;;
5125;SDS011;63008;53.112;8.896;2023-04-26T11:34:45;2.10;;;1.23;;
5125;SDS011;63008;53.112;8.896;2023-04-26T11:36:50;2.83;;;1.10;;
5125;SDS011;63008;53.112;8.896;2023-04-26T11:38:51;4.13;;;1.43;;
5125;SDS011;63008;53.112;8.896;2023-04-26T11:40:54;4.90;;;1.30;;
5125;SDS011;63008;53.112;8.896;2023-04-26T11:43:00;7.60;;;1.33;;
5125;SDS011;63008;53.112;8.896;2023-04-26T11:45:02;6.00;;;2.10;;
5125;SDS011;63008;53.112;8.896;2023-04-26T11:47:06;5.70;;;1.67;;
5125;SDS011;63008;53.112;8.896;2023-04-26T11:49:08;3.37;;;1.40;;
5125;SDS011;63008;53.112;8.896;2023-04-26T11:51:10;3.70;;;1.30;;
5125;SDS011;63008;53.112;8.896;2023-04-26T11:53:11;11.20;;;1.70;;
5125;SDS011;63008;53.112;8.896;2023-04-26T11:55:13;4.70;;;1.60;;
5125;SDS011;63008;53.112;8.896;2023-04-26T11:57:15;5.30;;;2.27;;
5125;SDS011;63008;53.112;8.896;2023-04-26T11:59:22;3.87;;;1.23;;
5125;SDS011;63008;53.112;8.896;2023-04-26T12:01:27;3.23;;;1.60;;
5125;SDS011;63008;53.112;8.896;2023-04-26T12:03:31;3.57;;;1.80;;
5125;SDS011;63008;53.112;8.896;2023-04-26T12:05:37;3.40;;;1.63;;
5125;SDS011;63008;53.112;8.896;2023-04-26T12:07:38;5.43;;;2.00;;
5125;SDS011;63008;53.112;8.896;2023-04-26T12:09:39;6.17;;;2.07;;
5125;SDS011;63008;53.112;8.896;2023-04-26T12:11:47;4.00;;;1.30;;
5125;SDS011;63008;53.112;8.896;2023-04-26T12:13:52;2.93;;;1.40;;
5125;SDS011;63008;53.112;8.896;2023-04-26T12:15:53;3.27;;;1.53;;
5125;SDS011;63008;53.112;8.896;2023-04-26T12:17:58;3.50;;;1.63;;
5125;SDS011;63008;53.112;8.896;2023-04-26T12:20:07;7.00;;;1.43;;
5125;SDS011;63008;53.112;8.896;2023-04-26T12:22:09;3.10;;;1.60;;
5125;SDS011;63008;53.112;8.896;2023-04-26T12:24:24;4.57;;;1.13;;
5125;SDS011;63008;53.112;8.896;2023-04-26T12:26:42;3.27;;;1.63;;
5125;SDS011;63008;53.112;8.896;2023-04-26T12:28:46;5.67;;;1.80;;
5125;SDS011;63008;53.112;8.896;2023-04-26T12:30:47;3.33;;;1.13;;
5125;SDS011;63008;53.112;8.896;2023-04-26T12:32:49;3.23;;;1.00;;
5125;SDS011;63008;53.112;8.896;2023-04-26T12:34:50;2.03;;;1.00;;